Monday, October 16, 2017, 8:30 PM EDT
Back to Local

KDSV, Dansville Municipal Airport

Location: Dansville, NY, United States Lat: 42.567
Local Time: 8:30 PM EDT ( 0:30 GMT) Lon: -77.717
Time Zone: US/Eastern Elev: 662 ft

Show me the last for .
Show Decoded

2017-10-16 19:54 METAR KDSV 162354Z AUTO 00000KT 10SM CLR 04/M01 A3027 RMK AO2 SLP263 T00441006
                 10100 20044 52018 =
2017-10-16 18:54 METAR KDSV 162254Z AUTO 29004KT 10SM CLR 07/M01 A3025 RMK AO2 SLP256 T00671011 =
2017-10-16 17:54 METAR KDSV 162154Z AUTO 32009KT 10SM FEW038 BKN050 08/01 A3023 RMK AO2 SLP250
                 T00830006 =
2017-10-16 16:54 METAR KDSV 162054Z AUTO 33010KT 10SM BKN045 BKN055 09/01 A3021 RMK AO2 SLP243
                 T00890011 53011 =
2017-10-16 15:54 METAR KDSV 161954Z AUTO 32008KT 10SM FEW035 SCT042 OVC055 09/02 A3020 RMK AO2
                 SLP237 T00890017 =
2017-10-16 14:54 METAR KDSV 161854Z AUTO 32009KT 10SM BKN038 OVC049 09/02 A3018 RMK AO2 SLP232
                 T00890017 =
2017-10-16 13:54 METAR KDSV 161754Z AUTO 33014G21KT 10SM SCT033 BKN047 OVC060 10/02 A3018 RMK AO2
                 SLP232 T01000017 10111 20078 50002 =
2017-10-16 12:54 METAR KDSV 161654Z AUTO 34014G21KT 10SM BKN037 OVC049 09/03 A3019 RMK AO2 SLP233
                 T00890028 =
2017-10-16 11:54 METAR KDSV 161554Z AUTO 31010G21KT 260V340 10SM SCT041 BKN050 09/01 A3018 RMK
                 AO2 SLP231 T00940011 =
2017-10-16 10:54 METAR KDSV 161454Z AUTO 33008KT 10SM FEW030 FEW037 OVC046 10/03 A3018 RMK AO2
                 SLP229 T01000033 51014 =
2017-10-16 09:54 METAR KDSV 161354Z AUTO 34012KT 10SM FEW023 SCT044 09/03 A3017 RMK AO2 SLP225
                 T00940033 =
2017-10-16 08:54 METAR KDSV 161254Z AUTO 36010KT 10SM SCT030 BKN037 OVC047 08/03 A3016 RMK AO2
                 SLP221 T00780028 =
2017-10-16 07:54 METAR KDSV 161154Z AUTO 32009KT 10SM OVC031 08/03 A3013 RMK AO2 SLP214 60000
                 70024 T00780028 10100 20078 51021 =
2017-10-16 06:54 METAR KDSV 161054Z AUTO 32008KT 10SM OVC024 08/03 A3012 RMK AO2 SLP208 T00780033
                 =
2017-10-16 05:54 METAR KDSV 160954Z AUTO 32008KT 10SM BKN024 OVC032 08/04 A3010 RMK AO2 RAB16E37
                 SLP201 P0000 T00830039 =
2017-10-16 05:13 METAR KDSV 160913Z AUTO 31008KT 10SM SCT024 OVC033 08/04 A3008 RMK AO2 T00830039
                 =
2017-10-16 04:54 METAR KDSV 160854Z AUTO 32008KT 10SM BKN023 OVC029 08/04 A3007 RMK AO2 RAB26E36
                 SLP190 P0000 60000 T00830039 53011 =
2017-10-16 03:54 METAR KDSV 160754Z AUTO 33011KT 10SM SCT023 OVC029 09/04 A3005 RMK AO2 SLP184
                 T00890044 =
2017-10-16 03:49 METAR KDSV 160749Z AUTO 33010KT 10SM FEW023 OVC029 09/04 A3005 RMK AO2 =
2017-10-16 02:54 METAR KDSV 160654Z AUTO 32010KT 10SM SCT022 OVC037 09/05 A3004 RMK AO2 RAB15E18
                 SLP178 P0000 T00940050 =
2017-10-16 02:39 METAR KDSV 160639Z AUTO 33010KT 10SM BKN023 OVC035 09/05 A3003 RMK AO2 RAB15E18
                 P0000 T00940050 =
2017-10-16 02:31 METAR KDSV 160631Z AUTO 33009KT 10SM SCT023 OVC035 09/05 A3003 RMK AO2 RAB15E18
                 P0000 T00940050 =
2017-10-16 02:13 METAR KDSV 160613Z AUTO 33015KT 10SM BKN026 OVC041 09/06 A3003 RMK AO2 T00890056
                 =
2017-10-16 01:54 METAR KDSV 160554Z AUTO 34012KT 10SM FEW028 OVC040 10/05 A3001 RMK AO2 SLP170
                 T01000050 10178 20100 53030 =
2017-10-16 00:54 METAR KDSV 160454Z AUTO 31013G17KT 10SM FEW025 OVC032 11/06 A2998 RMK AO2 SLP159
                 T01110056 402780111 =
2017-10-15 23:54 METAR KDSV 160354Z AUTO 30010G14KT 10SM BKN031 OVC041 13/06 A2995 RMK AO2 SLP146
                 T01280061 =
2017-10-15 22:54 METAR KDSV 160254Z AUTO 32016G25KT 10SM FEW028 OVC034 14/07 A2992 RMK AO2 SLP138
                 T01390072 51037 =
2017-10-15 22:51 METAR KDSV 160251Z AUTO 31015G22KT 10SM FEW028 OVC034 14/07 A2992 RMK AO2 =
2017-10-15 22:41 METAR KDSV 160241Z AUTO 32014KT 10SM BKN028 OVC034 14/08 A2991 RMK AO2 T01390078
                 =
2017-10-15 21:54 METAR KDSV 160154Z AUTO 30009G21KT 10SM BKN034 BKN043 OVC055 16/09 A2987 RMK AO2
                 SLP121 T01560094 =
2017-10-15 20:54 METAR KDSV 160054Z AUTO VRB06KT 10SM FEW060 OVC120 17/11 A2981 RMK AO2 SLP101
                 T01720111 =

Support USWX by starting your Amazon purchase here.